createdAt,value
2022-10-03T00:00:25.911Z,10.37
2022-10-03T00:03:32.257Z,10.87
2022-10-03T00:06:18.456Z,10.53
2022-10-03T00:09:04.378Z,11.40
2022-10-03T00:12:09.252Z,10.60
2022-10-03T00:15:22.024Z,10.00
2022-10-03T00:18:19.622Z,9.77
2022-10-03T00:21:08.678Z,10.93
2022-10-03T00:24:10.239Z,9.60
2022-10-03T00:27:00.936Z,9.63
2022-10-03T00:30:03.392Z,8.70
2022-10-03T00:32:57.647Z,10.27
2022-10-03T00:35:52.559Z,10.50
2022-10-03T00:39:10.992Z,10.13
2022-10-03T00:42:13.677Z,9.87
2022-10-03T00:44:59.655Z,10.83
2022-10-03T00:47:46.125Z,11.83
2022-10-03T00:50:31.924Z,11.83
2022-10-03T00:53:33.262Z,11.20
2022-10-03T00:56:22.189Z,12.00
2022-10-03T00:59:08.972Z,12.00
2022-10-03T01:01:55.074Z,11.03
2022-10-03T01:05:00.176Z,11.87
2022-10-03T01:07:58.513Z,10.60
2022-10-03T01:10:44.677Z,12.10
2022-10-03T01:13:32.684Z,11.13
2022-10-03T01:16:27.540Z,11.50
2022-10-03T01:19:33.833Z,10.80
2022-10-03T01:22:37.938Z,10.50
2022-10-03T01:25:26.820Z,11.13
2022-10-03T01:28:44.026Z,10.70
2022-10-03T01:31:50.432Z,11.13
2022-10-03T01:34:45.980Z,10.97
2022-10-03T01:37:38.317Z,11.53
2022-10-03T01:40:43.261Z,12.47
2022-10-03T01:43:38.279Z,12.10
2022-10-03T01:46:28.169Z,11.67
2022-10-03T01:49:20.224Z,11.30
2022-10-03T01:52:11.354Z,12.10
2022-10-03T01:55:03.716Z,12.23
2022-10-03T01:58:01.296Z,11.80
2022-10-03T02:01:07.918Z,12.60
2022-10-03T02:04:13.644Z,11.70
2022-10-03T02:07:09.928Z,11.33
2022-10-03T02:09:58.829Z,11.50
2022-10-03T02:12:47.801Z,13.37
2022-10-03T02:15:36.073Z,13.53
2022-10-03T02:18:27.116Z,13.07
2022-10-03T02:21:27.509Z,12.50
2022-10-03T02:24:16.395Z,12.70
2022-10-03T02:27:05.430Z,12.90
2022-10-03T02:29:54.595Z,12.50
2022-10-03T02:32:43.833Z,12.13
2022-10-03T02:35:48.939Z,13.00
2022-10-03T02:38:54.104Z,11.60
2022-10-03T02:41:40.437Z,11.20
2022-10-03T02:44:36.490Z,13.20
2022-10-03T02:47:25.396Z,11.47
2022-10-03T02:50:30.023Z,11.70
2022-10-03T02:53:30.879Z,11.60
2022-10-03T02:56:35.511Z,11.60
2022-10-03T02:59:30.162Z,12.13
2022-10-03T03:02:35.181Z,11.80
2022-10-03T03:05:33.638Z,11.60
2022-10-03T03:08:28.783Z,13.17
2022-10-03T03:11:18.584Z,11.50
2022-10-03T03:14:23.199Z,12.70
2022-10-03T03:17:27.923Z,12.60
2022-10-03T03:20:31.881Z,11.73
2022-10-03T03:23:21.487Z,10.60
2022-10-03T03:26:22.354Z,10.90
2022-10-03T03:29:18.998Z,11.37
2022-10-03T03:32:13.815Z,11.80
2022-10-03T03:35:20.842Z,12.77
2022-10-03T03:38:21.928Z,12.20
2022-10-03T03:41:27.019Z,11.43
2022-10-03T03:44:21.033Z,12.17
2022-10-03T03:47:07.589Z,11.50
2022-10-03T03:49:59.029Z,12.97
2022-10-03T03:52:52.970Z,11.87
2022-10-03T03:55:51.474Z,11.90
2022-10-03T03:58:43.425Z,12.20
2022-10-03T04:01:38.131Z,12.13
2022-10-03T04:04:24.097Z,12.00
2022-10-03T04:07:21.753Z,12.00
2022-10-03T04:10:14.986Z,13.60
2022-10-03T04:13:04.735Z,12.87
2022-10-03T04:15:59.574Z,11.93
2022-10-03T04:18:58.400Z,12.60
2022-10-03T04:22:05.331Z,11.13
2022-10-03T04:24:50.913Z,11.30
2022-10-03T04:27:52.896Z,13.37
2022-10-03T04:30:57.825Z,11.63
2022-10-03T04:33:49.660Z,11.77
2022-10-03T04:36:59.281Z,11.60
2022-10-03T04:39:47.860Z,11.60
2022-10-03T04:42:52.629Z,11.77
2022-10-03T04:45:44.465Z,11.47
2022-10-03T04:48:38.859Z,11.50
2022-10-03T04:51:45.303Z,11.87
2022-10-03T04:54:30.942Z,11.47
2022-10-03T04:57:24.508Z,12.47
2022-10-03T05:00:29.862Z,11.47
2022-10-03T05:03:22.376Z,11.60
2022-10-03T05:06:23.699Z,12.97
2022-10-03T05:09:32.648Z,12.10
2022-10-03T05:12:28.703Z,12.37
2022-10-03T05:15:20.773Z,12.40
2022-10-03T05:18:12.700Z,13.10
2022-10-03T05:21:03.021Z,11.40
2022-10-03T05:24:02.886Z,11.47
2022-10-03T05:26:51.683Z,12.40
2022-10-03T05:29:42.355Z,12.40
2022-10-03T05:32:31.677Z,12.40
2022-10-03T05:35:25.690Z,11.87
2022-10-03T05:38:11.493Z,11.93
2022-10-03T05:41:01.932Z,12.20
2022-10-03T05:44:05.366Z,12.93
2022-10-03T05:46:57.092Z,12.60
2022-10-03T05:49:53.119Z,11.63
2022-10-03T05:52:39.115Z,13.57
2022-10-03T05:55:30.881Z,12.27
2022-10-03T05:58:26.432Z,11.90
2022-10-03T06:01:30.428Z,13.10
2022-10-03T06:04:37.397Z,12.13
2022-10-03T06:07:24.395Z,11.03
2022-10-03T06:10:10.222Z,13.27
2022-10-03T06:13:20.503Z,12.60
2022-10-03T06:16:16.691Z,13.87
2022-10-03T06:19:14.604Z,12.90
2022-10-03T06:22:09.454Z,12.93
2022-10-03T06:25:16.890Z,13.33
2022-10-03T06:28:15.691Z,12.07
2022-10-03T06:31:20.438Z,13.00
2022-10-03T06:34:20.997Z,12.50
2022-10-03T06:37:25.673Z,13.53
2022-10-03T06:40:33.068Z,12.60
2022-10-03T06:43:38.105Z,13.67
2022-10-03T06:46:38.088Z,14.03
2022-10-03T06:49:50.168Z,13.90
2022-10-03T06:52:41.810Z,13.40
2022-10-03T06:55:27.775Z,12.27
2022-10-03T06:58:34.694Z,13.10
2022-10-03T07:01:20.436Z,11.87
2022-10-03T07:04:24.090Z,13.33
2022-10-03T07:07:16.230Z,12.63
2022-10-03T07:10:13.888Z,14.43
2022-10-03T07:13:18.340Z,13.03
2022-10-03T07:16:25.914Z,12.83
2022-10-03T07:19:24.034Z,11.57
2022-10-03T07:22:29.662Z,11.17
2022-10-03T07:25:36.458Z,12.40
2022-10-03T07:28:25.958Z,14.00
2022-10-03T07:31:32.109Z,13.07
2022-10-03T07:34:36.866Z,13.50
2022-10-03T07:37:50.210Z,12.97
2022-10-03T07:40:55.379Z,12.40
2022-10-03T07:44:07.356Z,12.83
2022-10-03T07:46:56.283Z,13.07
2022-10-03T07:50:01.124Z,12.20
2022-10-03T07:53:07.214Z,12.10
2022-10-03T07:56:11.483Z,13.57
2022-10-03T07:59:07.716Z,13.73
2022-10-03T08:02:08.933Z,14.60
2022-10-03T08:05:07.040Z,15.40
2022-10-03T08:08:11.698Z,14.57
2022-10-03T08:11:21.743Z,12.87
2022-10-03T08:14:35.259Z,13.00
2022-10-03T08:17:35.402Z,12.63
2022-10-03T08:20:24.556Z,12.90
2022-10-03T08:23:19.875Z,12.93
2022-10-03T08:26:13.776Z,11.93
2022-10-03T08:29:10.299Z,12.27
2022-10-03T08:32:14.741Z,13.50
2022-10-03T08:35:09.190Z,12.20
2022-10-03T08:38:07.566Z,10.90
2022-10-03T08:41:08.266Z,11.27
2022-10-03T08:44:13.124Z,10.20
2022-10-03T08:47:04.915Z,9.70
2022-10-03T08:50:00.673Z,10.30
2022-10-03T08:53:10.922Z,11.53
2022-10-03T08:56:06.606Z,10.27
2022-10-03T08:59:11.776Z,9.50
2022-10-03T09:02:07.716Z,8.97
2022-10-03T09:05:00.967Z,9.30
2022-10-03T09:07:59.913Z,9.20
2022-10-03T09:10:48.449Z,8.80
2022-10-03T09:13:34.092Z,8.10
2022-10-03T09:16:39.214Z,9.30
2022-10-03T09:19:46.577Z,8.80
2022-10-03T09:22:42.096Z,8.40
2022-10-03T09:25:37.001Z,8.20
2022-10-03T09:28:35.187Z,8.23
2022-10-03T09:31:40.455Z,6.90
2022-10-03T09:34:42.640Z,6.53
2022-10-03T09:37:41.184Z,5.60
2022-10-03T09:40:54.655Z,5.20
2022-10-03T09:44:01.426Z,5.10
2022-10-03T09:47:10.320Z,5.30
2022-10-03T09:50:13.242Z,5.57
2022-10-03T09:53:15.455Z,5.13
2022-10-03T09:56:04.313Z,5.10
2022-10-03T09:59:05.392Z,5.33
2022-10-03T10:01:57.963Z,5.17
2022-10-03T10:04:57.648Z,4.90
2022-10-03T10:08:03.364Z,4.83
2022-10-03T10:11:06.777Z,4.87
2022-10-03T10:14:11.469Z,3.40
2022-10-03T10:17:17.129Z,5.27
2022-10-03T10:20:07.447Z,4.50
2022-10-03T10:22:56.387Z,5.77
2022-10-03T10:25:53.422Z,3.17
2022-10-03T10:29:08.688Z,3.00
2022-10-03T10:32:06.642Z,3.57
2022-10-03T10:35:03.907Z,3.93
2022-10-03T10:38:09.501Z,4.30
2022-10-03T10:41:14.487Z,3.77
2022-10-03T10:44:19.482Z,3.30
2022-10-03T10:47:13.004Z,2.63
2022-10-03T10:49:58.946Z,3.40
2022-10-03T10:52:47.890Z,2.77
2022-10-03T10:55:46.043Z,3.70
2022-10-03T10:58:45.978Z,3.40
2022-10-03T11:01:45.170Z,4.40
2022-10-03T11:05:00.936Z,3.70
2022-10-03T11:08:06.928Z,2.83
2022-10-03T11:11:11.272Z,3.00
2022-10-03T11:14:24.793Z,3.27
2022-10-03T11:17:10.457Z,3.37
2022-10-03T11:20:15.661Z,4.60
2022-10-03T11:23:20.254Z,4.27
2022-10-03T11:26:21.923Z,4.60
2022-10-03T11:29:26.510Z,4.17
2022-10-03T11:32:24.643Z,3.77
2022-10-03T11:35:28.517Z,3.13
2022-10-03T11:38:32.997Z,3.57
2022-10-03T11:41:39.744Z,4.50
2022-10-03T11:44:31.233Z,3.90
2022-10-03T11:47:39.651Z,4.13
2022-10-03T11:50:34.993Z,4.23
2022-10-03T11:53:26.214Z,4.03
2022-10-03T11:56:30.847Z,3.60
2022-10-03T11:59:31.893Z,3.13
2022-10-03T12:02:31.239Z,4.40
2022-10-03T12:05:24.935Z,4.03
2022-10-03T12:08:35.538Z,3.67
2022-10-03T12:11:24.266Z,3.33
2022-10-03T12:14:11.499Z,4.60
2022-10-03T12:17:07.368Z,2.93
2022-10-03T12:20:02.913Z,3.30
2022-10-03T12:22:53.442Z,3.30
2022-10-03T12:25:41.465Z,4.97
2022-10-03T12:28:32.511Z,4.10
2022-10-03T12:31:24.572Z,7.27
2022-10-03T12:34:29.528Z,3.60
2022-10-03T12:37:29.375Z,2.80
2022-10-03T12:40:27.559Z,3.37
2022-10-03T12:43:31.987Z,5.27
2022-10-03T12:46:40.205Z,4.63
2022-10-03T12:49:45.893Z,3.20
2022-10-03T12:52:34.390Z,3.20
2022-10-03T12:55:26.734Z,3.70
2022-10-03T12:58:22.901Z,7.00
2022-10-03T13:01:24.584Z,3.67
2022-10-03T13:04:19.797Z,5.00
2022-10-03T13:07:11.823Z,3.97
2022-10-03T13:10:10.542Z,3.77
2022-10-03T13:13:06.661Z,3.80
2022-10-03T13:16:04.166Z,4.83
2022-10-03T13:19:05.600Z,3.30
2022-10-03T13:22:13.529Z,3.37
2022-10-03T13:25:07.427Z,3.00
2022-10-03T13:28:00.400Z,3.83
2022-10-03T13:30:56.057Z,4.50
2022-10-03T13:33:47.763Z,3.20
2022-10-03T13:36:39.709Z,3.80
2022-10-03T13:39:27.255Z,2.97
2022-10-03T13:42:33.536Z,3.70
2022-10-03T13:45:25.063Z,3.10
2022-10-03T13:48:15.779Z,4.20
2022-10-03T13:51:05.521Z,3.30
2022-10-03T13:53:54.079Z,3.23
2022-10-03T13:56:52.328Z,3.50
2022-10-03T13:59:51.864Z,3.97
2022-10-03T14:02:57.797Z,3.30
2022-10-03T14:05:49.601Z,3.37
2022-10-03T14:08:49.070Z,3.37
2022-10-03T14:11:56.880Z,3.33
2022-10-03T14:14:54.746Z,17.73
2022-10-03T14:17:46.290Z,8.43
2022-10-03T14:20:41.388Z,4.13
2022-10-03T14:23:35.330Z,3.73
2022-10-03T14:26:34.175Z,6.60
2022-10-03T14:29:38.854Z,5.73
2022-10-03T14:32:49.446Z,6.20
2022-10-03T14:35:44.543Z,5.60
2022-10-03T14:38:58.443Z,7.47
2022-10-03T14:42:07.036Z,12.80
2022-10-03T14:45:00.418Z,10.13
2022-10-03T14:47:51.486Z,7.40
2022-10-03T14:50:39.414Z,5.33
2022-10-03T14:53:29.653Z,4.80
2022-10-03T14:56:19.901Z,5.07
2022-10-03T14:59:12.659Z,4.23
2022-10-03T15:01:59.938Z,4.03
2022-10-03T15:04:45.815Z,4.70
2022-10-03T15:07:36.685Z,5.03
2022-10-03T15:10:26.400Z,4.33
2022-10-03T15:13:13.975Z,5.53
2022-10-03T15:16:01.570Z,5.43
2022-10-03T15:18:58.371Z,7.33
2022-10-03T15:21:45.910Z,4.63
2022-10-03T15:24:42.520Z,4.37
2022-10-03T15:27:28.992Z,4.33
2022-10-03T15:30:31.453Z,4.47
2022-10-03T15:33:32.358Z,5.40
2022-10-03T15:36:28.113Z,4.23
2022-10-03T15:39:29.424Z,7.70
2022-10-03T15:42:19.672Z,5.40
2022-10-03T15:45:12.099Z,4.90
2022-10-03T15:47:59.652Z,6.00
2022-10-03T15:50:50.343Z,5.00
2022-10-03T15:53:37.605Z,5.63
2022-10-03T15:56:29.066Z,5.47
2022-10-03T15:59:22.207Z,5.50
2022-10-03T16:02:22.485Z,5.33
2022-10-03T16:05:19.439Z,6.20
2022-10-03T16:08:05.087Z,6.03
2022-10-03T16:11:11.377Z,6.27
2022-10-03T16:14:05.238Z,6.20
2022-10-03T16:16:58.104Z,6.20
2022-10-03T16:19:52.183Z,7.83
2022-10-03T16:22:45.648Z,6.03
2022-10-03T16:25:39.879Z,6.33
2022-10-03T16:28:34.859Z,6.50
2022-10-03T16:31:27.312Z,5.83
2022-10-03T16:34:15.181Z,7.30
2022-10-03T16:37:01.277Z,6.53
2022-10-03T16:39:52.063Z,6.50
2022-10-03T16:42:44.470Z,7.03
2022-10-03T16:45:33.183Z,6.43
2022-10-03T16:48:48.042Z,7.30
2022-10-03T16:51:40.799Z,6.17
2022-10-03T16:54:28.361Z,6.03
2022-10-03T16:57:16.591Z,6.10
2022-10-03T17:00:07.790Z,6.03
2022-10-03T17:02:53.608Z,6.80
2022-10-03T17:05:43.449Z,6.00
2022-10-03T17:08:41.550Z,6.63
2022-10-03T17:11:28.933Z,6.03
2022-10-03T17:14:17.670Z,6.90
2022-10-03T17:17:13.204Z,7.80
2022-10-03T17:20:06.895Z,6.57
2022-10-03T17:22:57.592Z,6.40
2022-10-03T17:25:50.802Z,6.30
2022-10-03T17:28:37.053Z,7.83
2022-10-03T17:31:22.771Z,5.87
2022-10-03T17:34:12.427Z,7.30
2022-10-03T17:37:10.385Z,7.20
2022-10-03T17:40:17.201Z,8.00
2022-10-03T17:43:22.012Z,7.93
2022-10-03T17:46:19.622Z,7.70
2022-10-03T17:49:14.457Z,7.43
2022-10-03T17:52:00.155Z,8.07
2022-10-03T17:54:48.125Z,8.10
2022-10-03T17:57:47.317Z,7.80
2022-10-03T18:00:50.548Z,8.07
2022-10-03T18:03:36.885Z,11.60
2022-10-03T18:06:45.147Z,9.27
2022-10-03T18:09:38.450Z,8.53
2022-10-03T18:12:35.051Z,8.27
2022-10-03T18:15:41.012Z,8.30
2022-10-03T18:18:27.283Z,7.83
2022-10-03T18:21:35.960Z,8.47
2022-10-03T18:24:21.792Z,7.87
2022-10-03T18:27:25.702Z,7.50
2022-10-03T18:30:17.495Z,7.20
2022-10-03T18:33:03.944Z,7.87
2022-10-03T18:35:50.310Z,8.90
2022-10-03T18:38:36.809Z,8.70
2022-10-03T18:41:25.561Z,9.00
2022-10-03T18:44:16.093Z,9.47
2022-10-03T18:47:23.216Z,10.83
2022-10-03T18:50:30.470Z,13.07
2022-10-03T18:53:28.746Z,11.30
2022-10-03T18:56:21.666Z,10.63
2022-10-03T18:59:16.536Z,11.70
2022-10-03T19:02:05.526Z,14.17
2022-10-03T19:04:53.538Z,16.73
2022-10-03T19:07:44.612Z,16.17
2022-10-03T19:10:40.800Z,11.87
2022-10-03T19:13:33.608Z,11.23
2022-10-03T19:16:33.961Z,10.50
2022-10-03T19:19:29.967Z,10.90
2022-10-03T19:22:16.896Z,10.73
2022-10-03T19:25:04.044Z,11.50
2022-10-03T19:28:01.324Z,10.13
2022-10-03T19:30:57.100Z,10.83
2022-10-03T19:33:44.164Z,10.97
2022-10-03T19:36:31.107Z,11.83
2022-10-03T19:39:18.966Z,11.90
2022-10-03T19:42:23.421Z,13.37
2022-10-03T19:45:13.252Z,14.10
2022-10-03T19:48:09.497Z,12.73
2022-10-03T19:50:55.180Z,13.03
2022-10-03T19:53:45.205Z,13.10
2022-10-03T19:56:33.667Z,12.50
2022-10-03T19:59:19.788Z,12.23
2022-10-03T20:02:06.956Z,12.07
2022-10-03T20:04:54.666Z,10.27
2022-10-03T20:07:47.308Z,11.53
2022-10-03T20:10:46.137Z,13.33
2022-10-03T20:13:33.118Z,10.97
2022-10-03T20:16:21.166Z,9.57
2022-10-03T20:19:12.276Z,10.67
2022-10-03T20:21:58.930Z,11.83
2022-10-03T20:24:45.812Z,10.90
2022-10-03T20:27:48.137Z,10.40
2022-10-03T20:30:36.928Z,10.00
2022-10-03T20:33:23.805Z,11.40
2022-10-03T20:36:16.799Z,10.80
2022-10-03T20:39:02.390Z,10.27
2022-10-03T20:41:56.219Z,10.40
2022-10-03T20:45:00.625Z,10.70
2022-10-03T20:48:03.784Z,10.70
2022-10-03T20:50:49.691Z,11.90
2022-10-03T20:53:35.819Z,10.33
2022-10-03T20:56:25.052Z,9.50
2022-10-03T20:59:11.792Z,11.57
2022-10-03T21:02:02.887Z,14.50
2022-10-03T21:04:58.704Z,10.53
2022-10-03T21:07:49.637Z,9.77
2022-10-03T21:10:40.313Z,11.40
2022-10-03T21:13:28.738Z,10.37
2022-10-03T21:16:18.201Z,11.00
2022-10-03T21:19:05.780Z,13.67
2022-10-03T21:21:55.781Z,11.57
2022-10-03T21:24:53.903Z,10.80
2022-10-03T21:27:47.633Z,12.10
2022-10-03T21:30:42.426Z,11.87
2022-10-03T21:33:36.574Z,10.70
2022-10-03T21:36:45.252Z,11.40
2022-10-03T21:39:30.989Z,13.00
2022-10-03T21:42:32.282Z,12.00
2022-10-03T21:45:22.999Z,12.03
2022-10-03T21:48:27.002Z,10.87
2022-10-03T21:51:23.968Z,12.40
2022-10-03T21:54:22.537Z,12.43
2022-10-03T21:57:20.781Z,14.43
2022-10-03T22:00:11.001Z,12.00
2022-10-03T22:02:59.781Z,12.67
2022-10-03T22:06:00.241Z,12.60
2022-10-03T22:08:48.147Z,14.60
2022-10-03T22:11:40.202Z,13.63
2022-10-03T22:14:32.182Z,14.07
2022-10-03T22:17:32.749Z,13.20
2022-10-03T22:20:21.832Z,14.50
2022-10-03T22:23:13.920Z,13.63
2022-10-03T22:26:06.304Z,13.27
2022-10-03T22:29:10.744Z,12.63
2022-10-03T22:32:05.327Z,13.30
2022-10-03T22:34:57.487Z,12.90
2022-10-03T22:37:43.632Z,11.40
2022-10-03T22:40:30.176Z,11.87
2022-10-03T22:43:16.348Z,11.50
2022-10-03T22:46:03.280Z,11.50
2022-10-03T22:48:52.046Z,12.23
2022-10-03T22:51:40.949Z,12.53
2022-10-03T22:54:32.060Z,11.70
2022-10-03T22:57:19.753Z,12.50
2022-10-03T23:00:08.772Z,11.70
2022-10-03T23:03:18.476Z,12.17
2022-10-03T23:06:10.709Z,12.30
2022-10-03T23:09:02.758Z,12.33
2022-10-03T23:11:49.705Z,11.90
2022-10-03T23:14:41.193Z,13.03
2022-10-03T23:17:45.969Z,13.30
2022-10-03T23:20:41.407Z,12.83
2022-10-03T23:23:32.077Z,12.20
2022-10-03T23:26:36.084Z,15.40
2022-10-03T23:29:22.891Z,14.57
2022-10-03T23:32:10.532Z,14.10
2022-10-03T23:35:08.710Z,13.13
2022-10-03T23:37:55.447Z,12.80
2022-10-03T23:40:45.399Z,13.37
2022-10-03T23:43:32.527Z,12.60
2022-10-03T23:46:20.020Z,12.53
2022-10-03T23:49:06.423Z,11.53
2022-10-03T23:51:57.061Z,12.60
2022-10-03T23:54:43.331Z,13.10
2022-10-03T23:57:35.712Z,12.67
